1AR2 weather

Taylor Airstrip
Des Arc, Arkansas, United States

Public forecast

Using degrees Fahrenheit for public forecast. Weather courtesy of forecast.io.

Closest aviation weather report (METAR) to Taylor Airstrip

Closest report is Searcy Municipal Airport, 16.3 nm (30.2 km) NW. Retrieved 2020/01/27 17:10 UTC (41 minutes ago):

KSRC 271710Z AUTO 16004KT 10SM SCT002 08/08 A3007 RMK AO2

Closest aviation forecast (TAF) to Taylor Airstrip

Closest forecast is Little Rock Air Force Base, 29.8 nm (55.2 km) W. Retrieved 2020/01/27 15:20 UTC (3 hours ago):

TAF KLRF 271513Z 2715/2821 VRB06KT 0800 FG VV001 QNH3000INS BECMG 2716/2717 07006KT 6000 BR OVC002 QNH2997INS BECMG 2717/2718 VRB06KT 9999 NSW FEW280 QNH2996INS BECMG 2809/2810 07005KT 4800 BR BKN007 QNH3005INS BECMG 2815/2816 03009KT 9999 VCSH OVC005 QNH2998INS BECMG 2819/2820 03009KT 9000 -SHRA OVC004 QNH2996INS TX15/2720Z TN05/2812Z